Time;durP1;ratioP1;P1;durP2;ratioP2;P2;SDS_P1;SDS_P2;PMS_P1;PMS_P2;Temp;Humidity;BMP_temperature;BMP_pressure;BME280_temperature;BME280_humidity;BME280_pressure;Samples;Min_cycle;Max_cycle;Signal;HPM_P1;HPM_P2
2021/10/28 00:13:50;;;;;;;106.73;46.77;;;;;;;2.20;72.09;101602.06;1470245;89;21796;-90
2021/10/28 00:16:23;;;;;;;85.33;45.87;;;;;;;2.17;71.80;101599.58;1444285;90;22054;-90
2021/10/28 00:18:48;;;;;;;101.33;48.13;;;;;;;2.11;72.07;101597.23;1470706;88;21769;-90
2021/10/28 00:21:15;;;;;;;86.80;45.23;;;;;;;2.07;71.96;101604.78;1445525;90;21739;-89
2021/10/28 00:23:51;;;;;;;82.40;43.57;;;;;;;2.04;72.85;101604.91;1467370;89;22119;-89
2021/10/28 00:26:19;;;;;;;85.70;43.98;;;;;;;1.97;73.05;101603.48;1439656;90;21682;-89
2021/10/28 00:28:46;;;;;;;85.87;44.53;;;;;;;1.89;73.28;101608.17;1463302;89;22368;-88
2021/10/28 00:31:13;;;;;;;89.93;44.80;;;;;;;1.84;73.23;101598.37;1466841;89;21341;-87
2021/10/28 00:33:40;;;;;;;87.33;45.47;;;;;;;1.80;73.59;101601.11;1454565;88;21712;-87
2021/10/28 00:36:12;;;;;;;94.70;43.53;;;;;;;1.80;73.48;101607.63;1452418;90;21605;-89
2021/10/28 00:38:40;;;;;;;84.10;44.00;;;;;;;1.83;72.95;101595.38;1466539;89;22657;-89
2021/10/28 00:41:07;;;;;;;79.17;42.67;;;;;;;1.84;72.92;101597.06;1452887;90;22721;-88
2021/10/28 00:43:34;;;;;;;87.97;47.10;;;;;;;1.81;72.59;101595.42;1461818;88;21711;-88
2021/10/28 00:46:02;;;;;;;85.33;45.20;;;;;;;1.87;72.33;101596.93;1454606;90;21605;-89
2021/10/28 00:48:31;;;;;;;94.15;46.37;;;;;;;1.93;72.47;101597.55;1477150;88;24189;-89
2021/10/28 00:50:58;;;;;;;85.53;44.10;;;;;;;1.92;72.62;101590.61;1468839;88;22500;-90
2021/10/28 00:53:25;;;;;;;85.27;45.27;;;;;;;1.88;72.43;101586.91;1470203;88;22071;-89
2021/10/28 00:55:52;;;;;;;102.55;50.15;;;;;;;1.85;72.36;101581.81;1472170;88;21616;-89
2021/10/28 00:58:23;;;;;;;98.30;49.37;;;;;;;1.87;72.00;101589.10;1468200;88;21385;-90
2021/10/28 01:00:53;;;;;;;92.57;47.07;;;;;;;1.86;72.19;101579.58;1470850;88;22179;-89
2021/10/28 01:03:20;;;;;;;100.82;48.83;;;;;;;1.80;72.47;101580.22;1476156;88;21408;-89
2021/10/28 01:05:48;;;;;;;93.23;45.23;;;;;;;1.78;72.90;101578.16;1476036;88;21390;-89
2021/10/28 01:08:16;;;;;;;96.30;48.57;;;;;;;1.78;72.81;101581.19;1451313;88;22176;-90
2021/10/28 01:10:47;;;;;;;96.90;49.53;;;;;;;1.74;72.86;101583.09;1473413;88;22505;-90
2021/10/28 01:13:17;;;;;;;88.47;47.73;;;;;;;1.74;72.82;101577.87;1465320;88;21675;-89
2021/10/28 01:15:46;;;;;;;87.33;48.47;;;;;;;1.74;72.44;101576.56;1468307;88;22065;-91
2021/10/28 01:18:16;;;;;;;88.83;49.20;;;;;;;1.73;72.35;101571.42;1471597;88;21609;-91
2021/10/28 01:20:47;;;;;;;87.78;47.50;;;;;;;1.78;72.43;101574.23;1472219;88;21688;-91
2021/10/28 01:23:16;;;;;;;;;;;;;;;1.84;72.25;101577.48;1477882;88;22411;-90
2021/10/28 01:25:53;;;;;;;91.73;48.40;;;;;;;1.86;73.23;101572.59;1469096;88;20779;-90
2021/10/28 01:28:23;;;;;;;84.20;45.50;;;;;;;1.79;73.00;101573.31;1477766;88;21604;-90
2021/10/28 01:30:55;;;;;;;90.38;47.70;;;;;;;1.66;73.13;101579.94;1466151;88;21392;-90
2021/10/28 01:33:23;;;;;;;88.55;47.62;;;;;;;1.54;73.08;101581.28;1480284;88;21399;-90
2021/10/28 01:35:51;;;;;;;99.07;50.47;;;;;;;1.47;73.01;101581.61;1463984;88;21370;-90
2021/10/28 01:38:19;;;;;;;90.70;46.73;;;;;;;1.44;73.05;101575.17;1473696;88;21640;-90
2021/10/28 01:41:03;;;;;;;79.42;45.50;;;;;;;1.42;73.35;101582.24;1467946;88;21319;-90
2021/10/28 01:43:33;;;;;;;90.12;46.00;;;;;;;1.39;73.76;101571.93;1470120;88;21414;-91
2021/10/28 01:46:01;;;;;;;66.12;39.75;;;;;;;1.30;74.19;101576.59;1461929;88;21595;-91
2021/10/28 01:48:29;;;;;;;80.10;44.75;;;;;;;1.31;74.14;101581.35;1464931;88;21245;-91
2021/10/28 01:50:57;;;;;;;88.22;46.88;;;;;;;1.28;74.11;101571.88;1466686;88;22450;-92
2021/10/28 01:53:26;;;;;;;79.17;44.05;;;;;;;1.24;74.34;101574.69;1469374;88;21738;-90
2021/10/28 01:55:53;;;;;;;83.85;45.17;;;;;;;1.22;74.03;101573.89;1475096;88;22346;-90
2021/10/28 01:58:25;;;;;;;78.28;44.08;;;;;;;1.19;74.22;101568.34;1447428;90;21376;-90
2021/10/28 02:00:53;;;;;;;91.42;47.35;;;;;;;1.18;74.34;101569.25;1464149;89;21363;-89
2021/10/28 02:03:20;;;;;;;80.28;44.83;;;;;;;1.10;74.69;101570.84;1445416;90;21353;-89
2021/10/28 02:05:49;;;;;;;71.62;40.08;;;;;;;1.02;74.55;101578.11;1466424;89;22427;-89
2021/10/28 02:08:16;;;;;;;78.57;40.40;;;;;;;0.95;74.21;101584.47;1443325;89;21488;-90
2021/10/28 02:10:44;;;;;;;81.82;40.50;;;;;;;0.89;73.73;101591.19;1463348;89;22395;-90
2021/10/28 02:13:13;;;;;;;91.78;42.38;;;;;;;0.83;73.32;101590.97;1472147;89;21418;-90
2021/10/28 02:15:41;;;;;;;72.20;40.65;;;;;;;0.81;73.30;101588.89;1469547;89;21534;-90
2021/10/28 02:18:09;;;;;;;78.95;38.98;;;;;;;0.82;73.79;101592.34;1460108;89;21553;-90
2021/10/28 02:20:38;;;;;;;72.45;38.23;;;;;;;0.80;73.88;101592.38;1467110;89;21315;-90
2021/10/28 02:23:08;;;;;;;89.58;39.73;;;;;;;0.74;73.85;101593.91;1461432;89;21397;-90
2021/10/28 02:25:36;;;;;;;76.57;38.58;;;;;;;0.70;73.59;101597.55;1470602;89;21449;-90
2021/10/28 02:28:03;;;;;;;75.55;41.08;;;;;;;0.66;73.32;101590.73;1460773;89;22095;-89
2021/10/28 02:30:32;;;;;;;86.92;43.23;;;;;;;0.69;73.74;101594.53;1482422;88;21597;-88
2021/10/28 02:33:00;;;;;;;79.17;40.40;;;;;;;0.71;73.25;101596.64;1483490;87;22477;-88
2021/10/28 02:35:27;;;;;;;80.00;40.98;;;;;;;0.79;73.48;101592.00;1469455;88;21515;-88
2021/10/28 02:37:54;;;;;;;78.33;41.33;;;;;;;0.83;73.68;101589.66;1451675;89;21471;-88
2021/10/28 02:40:22;;;;;;;87.10;42.88;;;;;;;0.83;74.22;101591.42;1472489;88;21493;-87
2021/10/28 02:42:49;;;;;;;87.08;41.63;;;;;;;0.75;73.86;101593.45;1464634;88;21287;-88
2021/10/28 02:45:16;;;;;;;78.85;41.95;;;;;;;0.68;73.64;101592.38;1443011;90;21376;-87
2021/10/28 02:47:43;;;;;;;84.15;42.65;;;;;;;0.64;73.82;101590.81;1459342;88;21442;-88
2021/10/28 02:50:11;;;;;;;86.02;41.10;;;;;;;0.62;74.00;101594.37;1430709;90;21369;-88
2021/10/28 02:52:38;;;;;;;83.17;42.48;;;;;;;0.62;74.10;101587.86;1444588;90;22404;-88
2021/10/28 02:55:06;;;;;;;73.87;41.33;;;;;;;0.63;73.98;101590.42;1443486;90;21459;-88
2021/10/28 02:57:33;;;;;;;84.35;43.25;;;;;;;0.66;73.74;101588.12;1448164;90;21923;-88
2021/10/28 03:00:00;;;;;;;82.12;46.68;;;;;;;0.70;73.77;101586.28;1445896;90;21435;-88
2021/10/28 03:02:28;;;;;;;93.12;45.38;;;;;;;0.76;73.09;101586.91;1449048;90;21398;-89
2021/10/28 03:04:56;;;;;;;89.70;46.85;;;;;;;0.85;73.52;101585.71;1440924;90;21516;-88
2021/10/28 03:07:24;;;;;;;78.75;41.30;;;;;;;0.84;73.92;101591.84;1443018;89;22546;-89
2021/10/28 03:09:51;;;;;;;83.00;43.00;;;;;;;0.78;73.46;101595.52;1437727;90;21442;-89
2021/10/28 03:12:18;;;;;;;86.05;42.13;;;;;;;0.70;73.58;101590.20;1436068;89;21310;-87
2021/10/28 03:14:52;;;;;;;84.25;40.45;;;;;;;0.58;73.15;101595.40;1443521;90;21354;-88
2021/10/28 03:27:50;;;;;;;99.65;44.85;;;;;;;0.50;73.44;101596.13;1395215;92;21457;-90
2021/10/28 03:30:18;;;;;;;102.20;51.20;;;;;;;0.52;73.44;101596.47;1413896;92;21539;-90
2021/10/28 03:32:45;;;;;;;88.60;45.48;;;;;;;0.54;73.86;101605.52;1415703;92;21562;-87
2021/10/28 03:35:14;;;;;;;94.77;45.95;;;;;;;0.55;74.07;101609.84;1413007;92;22323;-88
2021/10/28 03:37:47;;;;;;;90.38;44.45;;;;;;;0.59;73.64;101614.02;1410775;92;21502;-88
2021/10/28 03:43:32;;;;;;;95.38;46.40;;;;;;;0.51;74.57;101618.19;1374905;92;21619;-88
2021/10/28 03:54:11;;;;;;;73.75;41.37;;;;;;;0.20;74.61;101630.11;1398313;93;21570;-90
2021/10/28 04:19:57;;;;;;;67.92;35.60;;;;;;;0.05;75.21;101625.43;1426424;91;21620;-88
2021/10/28 04:30:08;;;;;;;64.80;35.10;;;;;;;-0.04;75.18;101606.61;1444579;90;21384;-89
2021/10/28 04:32:36;;;;;;;65.52;35.25;;;;;;;0.05;74.68;101607.20;1442359;90;21508;-89
2021/10/28 04:35:04;;;;;;;67.35;35.75;;;;;;;0.15;74.38;101602.11;1436727;91;21339;-89
2021/10/28 04:37:31;;;;;;;70.52;37.05;;;;;;;0.24;74.64;101600.94;1431317;91;21564;-88
2021/10/28 04:39:58;;;;;;;74.92;38.25;;;;;;;0.34;74.57;101594.49;1441718;91;21556;-88
2021/10/28 04:42:25;;;;;;;95.95;40.20;;;;;;;0.38;74.21;101594.80;1442594;90;22449;-88
2021/10/28 04:44:52;;;;;;;91.42;44.60;;;;;;;0.42;74.15;101599.83;1430486;91;21531;-90
2021/10/28 04:47:19;;;;;;;85.65;46.23;;;;;;;0.44;74.08;101598.03;1445540;90;21593;-89
2021/10/28 04:49:47;;;;;;;135.07;58.50;;;;;;;0.44;73.93;101594.12;1460007;89;22220;-89
2021/10/28 04:52:14;;;;;;;123.92;57.27;;;;;;;0.45;74.12;101594.51;1461501;88;21347;-90
2021/10/28 04:54:42;;;;;;;94.40;46.25;;;;;;;0.47;74.15;101592.33;1464717;88;21397;-90
2021/10/28 04:57:09;;;;;;;131.55;57.23;;;;;;;0.47;73.74;101602.74;1468495;88;21420;-89
2021/10/28 04:59:36;;;;;;;121.13;59.93;;;;;;;0.40;74.41;101609.47;1475468;88;21464;-92
2021/10/28 05:02:04;;;;;;;127.85;58.02;;;;;;;0.35;74.24;101614.45;1469541;88;21397;-92
2021/10/28 05:04:31;;;;;;;137.50;63.00;;;;;;;0.30;74.25;101617.65;1456315;88;21265;-91
2021/10/28 05:06:58;;;;;;;120.62;54.25;;;;;;;0.26;74.44;101616.03;1471614;88;21485;-91
2021/10/28 05:09:28;;;;;;;122.95;54.45;;;;;;;0.27;74.98;101617.76;1464880;88;21456;-91
2021/10/28 05:11:59;;;;;;;100.85;51.05;;;;;;;0.25;75.02;101624.77;1452737;88;21478;-91
2021/10/28 05:14:26;;;;;;;103.85;46.68;;;;;;;0.12;75.03;101621.28;1468913;88;21449;-90
2021/10/28 05:16:57;;;;;;;122.22;50.30;;;;;;;0.02;75.01;101624.23;1470404;88;21361;-90
2021/10/28 05:19:28;;;;;;;101.33;47.17;;;;;;;-0.04;74.70;101625.28;1474099;88;22373;-91
2021/10/28 05:21:55;;;;;;;82.75;40.70;;;;;;;-0.12;74.74;101632.03;1465870;88;22169;-90
2021/10/28 05:24:22;;;;;;;88.55;45.83;;;;;;;-0.21;74.77;101640.14;1474855;88;21383;-91
2021/10/28 05:26:49;;;;;;;81.75;39.73;;;;;;;-0.21;74.65;101648.41;1469510;88;21331;-90
2021/10/28 05:29:16;;;;;;;100.45;43.45;;;;;;;-0.20;74.52;101649.67;1474000;88;21383;-90
2021/10/28 05:31:43;;;;;;;78.45;39.40;;;;;;;-0.21;73.79;101649.70;1466406;88;22388;-91
2021/10/28 05:34:10;;;;;;;76.70;39.73;;;;;;;-0.22;73.74;101648.86;1459991;88;21514;-90
2021/10/28 05:36:37;;;;;;;81.42;40.30;;;;;;;-0.24;73.95;101647.59;1464567;88;21544;-91
2021/10/28 05:39:04;;;;;;;76.30;35.92;;;;;;;-0.21;74.23;101649.25;1474807;88;21427;-90
2021/10/28 05:41:32;;;;;;;76.70;38.70;;;;;;;-0.19;74.14;101649.21;1470239;88;21523;-89
2021/10/28 05:43:59;;;;;;;70.32;36.93;;;;;;;-0.16;74.11;101649.95;1464095;88;21479;-89
2021/10/28 05:46:26;;;;;;;81.35;38.83;;;;;;;-0.13;73.73;101655.52;1472651;88;22352;-89
2021/10/28 05:48:53;;;;;;;70.32;34.88;;;;;;;-0.13;73.31;101661.57;1454306;88;21485;-90
2021/10/28 05:51:21;;;;;;;70.35;35.65;;;;;;;-0.06;73.22;101660.91;1458371;89;22252;-89
2021/10/28 05:53:49;;;;;;;77.17;39.42;;;;;;;0.02;73.36;101654.17;1470006;89;21361;-89
2021/10/28 05:56:17;;;;;;;75.80;40.70;;;;;;;0.11;73.47;101661.67;1462389;89;22145;-88
2021/10/28 05:58:44;;;;;;;67.50;37.90;;;;;;;0.19;73.22;101664.42;1461213;89;21332;-88
2021/10/28 06:01:11;;;;;;;73.67;36.38;;;;;;;0.10;71.76;101672.54;1469640;89;21338;-90
2021/10/28 06:03:38;;;;;;;64.42;35.98;;;;;;;0.07;71.68;101671.80;1470492;88;21398;-90
2021/10/28 06:06:05;;;;;;;70.30;37.58;;;;;;;0.03;72.33;101681.89;1456061;89;21376;-90
2021/10/28 06:08:34;;;;;;;68.10;36.63;;;;;;;0.03;72.94;101689.70;1455023;89;21429;-89
2021/10/28 06:11:01;;;;;;;67.50;37.30;;;;;;;0.06;73.67;101690.90;1467258;89;21325;-92
2021/10/28 06:13:29;;;;;;;62.73;38.40;;;;;;;0.12;74.20;101697.23;1465018;89;21412;-91
2021/10/28 06:15:58;;;;;;;73.45;36.38;;;;;;;0.15;75.46;101695.83;1466553;89;21339;-92
2021/10/28 06:20:55;;;;;;;60.23;36.50;;;;;;;0.24;76.21;101700.73;1457631;89;21515;-91
2021/10/28 06:23:22;;;;;;;69.30;41.88;;;;;;;0.32;76.35;101707.84;1464860;89;21457;-90
2021/10/28 06:25:52;;;;;;;65.55;37.75;;;;;;;0.42;76.80;101709.23;1466187;89;21487;-89
2021/10/28 06:28:19;;;;;;;71.87;39.03;;;;;;;0.55;77.12;101707.08;1464989;89;21480;-91
2021/10/28 06:30:46;;;;;;;68.83;39.45;;;;;;;0.71;76.74;101718.27;1463164;89;21376;-92
2021/10/28 06:33:23;;;;;;;80.67;43.87;;;;;;;0.89;76.48;101721.52;1464568;89;21420;-89
2021/10/28 06:35:49;;;;;;;62.93;37.85;;;;;;;1.09;76.59;101719.52;1461844;89;22381;-90
2021/10/28 06:38:16;;;;;;;72.70;38.73;;;;;;;1.25;76.58;101716.75;1447143;89;21450;-91
2021/10/28 06:40:44;;;;;;;70.33;39.87;;;;;;;1.43;76.01;101720.89;1460357;89;21837;-90
2021/10/28 06:43:11;;;;;;;67.57;37.37;;;;;;;1.64;76.04;101721.41;1457887;89;21539;-90
2021/10/28 06:45:38;;;;;;;81.10;41.57;;;;;;;1.85;75.66;101720.17;1456804;89;22460;-91
2021/10/28 06:48:07;;;;;;;77.57;42.23;;;;;;;2.08;75.30;101721.41;1467617;88;21736;-89
2021/10/28 06:50:46;;;;;;;63.20;41.30;;;;;;;2.35;75.23;101712.90;1462715;88;22455;-90
2021/10/28 06:53:19;;;;;;;65.90;38.27;;;;;;;2.64;75.25;101718.67;1468628;88;21672;-89
2021/10/28 06:55:53;;;;;;;68.30;39.87;;;;;;;2.88;74.76;101716.79;1477873;88;21563;-90
2021/10/28 07:03:29;;;;;;;69.77;39.10;;;;;;;3.31;73.77;101730.55;1465171;88;21728;-90
2021/10/28 07:06:09;;;;;;;51.03;34.27;;;;;;;3.46;73.35;101734.27;1470097;88;21702;-89
2021/10/28 07:08:30;;;;;;;59.37;34.80;;;;;;;3.56;73.08;101727.68;1470306;88;21656;-90
2021/10/28 07:10:59;;;;;;;59.80;37.13;;;;;;;3.71;73.15;101736.59;1471754;88;21635;-90
2021/10/28 07:13:30;;;;;;;64.93;38.87;;;;;;;3.92;72.69;101729.52;1471284;88;21566;-90
2021/10/28 07:23:44;;;;;;;51.13;33.80;;;;;;;4.79;71.79;101726.97;1428941;91;21950;-89
2021/10/28 07:31:43;;;;;;;56.77;33.43;;;;;;;5.25;69.94;101717.54;1422539;91;22141;-89
2021/10/28 07:39:29;;;;;;;54.07;33.57;;;;;;;6.00;69.25;101725.74;1426124;91;22183;-89
2021/10/28 08:13:26;;;;;;;57.07;33.43;;;;;;;8.12;64.21;101697.43;1468356;88;21391;-89
2021/10/28 08:19:42;;;;;;;53.03;31.63;;;;;;;9.16;61.76;101688.70;1467967;88;21390;-89
2021/10/28 08:22:14;;;;;;;53.60;32.77;;;;;;;9.29;61.20;101685.54;1466226;88;21442;-88
2021/10/28 08:30:13;;;;;;;48.87;30.80;;;;;;;9.78;59.70;101686.47;1468135;88;21486;-89
2021/10/28 08:32:40;;;;;;;50.07;33.17;;;;;;;9.92;59.38;101682.33;1461025;88;21519;-89
2021/10/28 08:35:09;;;;;;;52.33;31.13;;;;;;;10.15;59.30;101681.95;1462854;88;21560;-88
2021/10/28 08:37:44;;;;;;;55.33;34.17;;;;;;;10.37;59.02;101674.13;1466753;88;21405;-88
2021/10/28 08:40:10;;;;;;;66.67;43.03;;;;;;;10.55;56.33;101675.02;1465040;88;22418;-88
2021/10/28 08:42:38;;;;;;;44.27;29.47;;;;;;;10.61;56.95;101674.55;1464166;88;22291;-88
2021/10/28 08:45:07;;;;;;;63.27;48.43;;;;;;;10.72;56.40;101665.30;1468296;88;22484;-88
2021/10/28 08:47:34;;;;;;;52.63;32.57;;;;;;;10.80;56.38;101666.05;1466826;88;22440;-88
2021/10/28 08:50:08;;;;;;;49.23;29.83;;;;;;;10.90;55.81;101659.53;1473985;88;23040;-89
2021/10/28 08:55:28;;;;;;;60.67;38.33;;;;;;;11.38;56.10;101665.91;1466016;89;21546;-88
2021/10/28 09:19:33;;;;;;;135.37;76.73;;;;;;;12.47;54.13;101658.31;1475545;88;21433;-89
2021/10/28 09:51:03;;;;;;;30.77;21.00;;;;;;;20.52;35.58;101627.05;1473303;88;22552;-88
2021/10/28 09:53:42;;;;;;;39.38;21.33;;;;;;;20.31;30.95;101625.05;1470068;88;21419;-88
2021/10/28 09:58:49;;;;;;;33.70;22.10;;;;;;;20.07;34.44;101619.39;1368232;91;21427;-88
2021/10/28 10:01:44;;;;;;;24.25;20.52;;;;;;;20.11;33.50;101614.00;1554543;88;21361;-88
2021/10/28 10:04:07;;;;;;;36.58;22.07;;;;;;;20.15;33.60;101608.58;1554119;88;21338;-89
2021/10/28 10:06:39;;;;;;;25.57;20.45;;;;;;;20.42;33.47;101606.30;1395134;88;21235;-89
2021/10/28 10:09:04;;;;;;;27.27;21.17;;;;;;;20.71;33.58;101606.36;1541370;88;21467;-89
2021/10/28 10:11:33;;;;;;;28.70;18.23;;;;;;;21.12;32.95;101601.81;1433576;88;21472;-89
2021/10/28 10:14:02;;;;;;;36.33;21.77;;;;;;;21.30;32.66;101600.05;1457143;88;22461;-89
2021/10/28 10:16:30;;;;;;;25.32;17.42;;;;;;;21.30;32.29;101601.91;1394740;88;21257;-89
2021/10/28 10:18:59;;;;;;;27.58;17.80;;;;;;;21.42;31.80;101593.69;1515901;88;21294;-89
2021/10/28 10:21:37;;;;;;;30.20;19.37;;;;;;;21.55;31.47;101591.14;1542986;88;21369;-88
2021/10/28 11:25:44;;;;;;;26.85;17.90;;;;;;;22.87;28.63;101532.45;1461690;88;21485;-89
2021/10/28 12:25:16;;;;;;;20.97;14.20;;;;;;;23.37;26.80;101457.39;1424041;91;22434;-88
2021/10/28 12:45:21;;;;;;;12.68;10.30;;;;;;;24.57;24.86;101436.91;1427656;91;21436;-87
2021/10/28 13:02:48;;;;;;;14.60;8.75;;;;;;;24.95;24.94;101423.34;1418679;91;22344;-92
2021/10/28 13:38:25;;;;;;;30.17;12.95;;;;;;;24.76;24.06;101409.41;1446104;90;22375;-88
2021/10/28 13:49:04;;;;;;;14.45;12.43;;;;;;;21.51;26.80;101408.04;1440759;90;21583;-87
2021/10/28 15:29:31;;;;;;;64.93;18.90;;;;;;;12.77;43.88;101390.53;1448116;90;21641;-88
2021/10/28 15:34:47;;;;;;;58.33;21.00;;;;;;;12.41;44.68;101399.49;1455423;90;21449;-89
2021/10/28 15:37:26;;;;;;;45.20;18.90;;;;;;;12.21;45.47;101396.44;1452757;89;21471;-88
2021/10/28 15:40:32;;;;;;;43.10;21.17;;;;;;;12.04;46.05;101397.90;1471917;88;21561;-88
2021/10/28 15:48:12;;;;;;;138.03;23.77;;;;;;;11.45;47.97;101395.38;1475860;88;21530;-89
2021/10/28 16:21:59;;;;;;;98.03;39.77;;;;;;;10.15;50.93;101406.83;1450263;89;21621;-88
2021/10/28 16:24:32;;;;;;;165.43;38.17;;;;;;;10.11;51.18;101406.73;1435519;89;21413;-87
2021/10/28 16:27:12;;;;;;;80.37;35.00;;;;;;;10.06;51.25;101413.69;1446822;89;22083;-88
2021/10/28 16:29:34;;;;;;;87.53;28.93;;;;;;;10.01;51.34;101408.39;1436765;88;21517;-88
2021/10/28 16:32:02;;;;;;;81.73;26.90;;;;;;;9.93;51.61;101411.17;1437300;89;22263;-88
2021/10/28 16:34:29;;;;;;;352.87;39.73;;;;;;;9.82;52.10;101413.80;1458136;89;21932;-88
2021/10/28 16:37:01;;;;;;;169.53;28.13;;;;;;;9.70;52.26;101412.11;1437712;89;21450;-88
2021/10/28 16:39:29;;;;;;;95.87;23.53;;;;;;;9.64;52.61;101409.46;1443635;88;21800;-88
2021/10/28 16:41:57;;;;;;;91.90;22.70;;;;;;;9.54;53.03;101409.79;1422972;91;21541;-88
2021/10/28 16:44:25;;;;;;;103.43;24.27;;;;;;;9.39;53.24;101407.83;1439755;91;21634;-87
2021/10/28 16:46:54;;;;;;;77.13;26.37;;;;;;;9.22;53.81;101407.78;1408934;92;22175;-88
2021/10/28 16:49:23;;;;;;;89.50;23.70;;;;;;;9.00;55.23;101401.92;1428911;91;21702;-87
2021/10/28 16:51:50;;;;;;;43.83;20.20;;;;;;;8.83;55.20;101401.48;1416655;91;21511;-88
2021/10/28 16:54:18;;;;;;;95.40;35.50;;;;;;;8.66;55.88;101397.44;1429046;91;21438;-87
2021/10/28 16:56:47;;;;;;;55.93;24.43;;;;;;;8.49;56.82;101402.16;1411167;93;21620;-87
2021/10/28 16:59:15;;;;;;;55.43;24.87;;;;;;;8.41;56.45;101399.22;1431792;90;21556;-88
2021/10/28 17:01:44;;;;;;;62.87;23.83;;;;;;;8.38;56.59;101400.73;1413730;91;22530;-87
2021/10/28 17:04:11;;;;;;;91.50;24.70;;;;;;;8.35;56.35;101406.23;1443760;90;21577;-87
2021/10/28 17:06:41;;;;;;;79.47;27.67;;;;;;;8.32;56.40;101404.64;1424754;90;21647;-88
2021/10/28 17:13:08;;;;;;;68.10;28.87;;;;;;;8.33;56.37;101401.05;1439591;88;21432;-88
2021/10/28 17:15:36;;;;;;;56.53;26.50;;;;;;;8.24;57.56;101400.87;1453259;89;21438;-86
2021/10/28 17:18:04;;;;;;;58.03;24.60;;;;;;;8.09;58.26;101408.06;1447384;90;21624;-87
2021/10/28 17:20:35;;;;;;;55.03;23.57;;;;;;;7.92;58.25;101401.33;1449066;88;21405;-87
2021/10/28 17:23:01;;;;;;;63.73;23.77;;;;;;;7.79;58.68;101407.91;1460204;88;21485;-87
2021/10/28 17:25:31;;;;;;;71.97;29.53;;;;;;;7.71;58.54;101406.75;1476497;88;22403;-91
2021/10/28 17:27:58;;;;;;;67.23;27.70;;;;;;;7.61;59.02;101407.39;1445914;89;21404;-91
2021/10/28 17:30:25;;;;;;;212.63;68.23;;;;;;;7.52;59.32;101406.70;1429082;90;22370;-92
2021/10/28 17:32:52;;;;;;;69.43;29.43;;;;;;;7.49;59.33;101412.17;1410043;91;21383;-92
2021/10/28 17:35:20;;;;;;;87.03;31.73;;;;;;;7.49;58.96;101413.97;1441756;90;21400;-91
2021/10/28 17:37:47;;;;;;;69.00;29.33;;;;;;;7.49;59.04;101409.55;1412514;91;21406;-93
2021/10/28 17:40:15;;;;;;;87.37;31.30;;;;;;;7.48;58.99;101413.14;1417313;91;22371;-87
2021/10/28 17:42:43;;;;;;;81.77;31.13;;;;;;;7.49;59.09;101416.13;1438475;90;21368;-87
2021/10/28 17:45:13;;;;;;;92.77;35.83;;;;;;;7.45;59.19;101418.58;1441101;90;21422;-87
2021/10/28 17:47:41;;;;;;;108.57;37.53;;;;;;;7.43;59.29;101415.23;1396447;89;21391;-88
2021/10/28 17:50:10;;;;;;;112.67;39.57;;;;;;;7.34;59.49;101414.53;1441081;89;21384;-88
2021/10/28 17:52:41;;;;;;;115.17;43.37;;;;;;;7.22;59.56;101405.63;1467345;87;21545;-88
2021/10/28 17:55:14;;;;;;;130.50;49.42;;;;;;;7.21;59.55;101416.64;1463873;88;21609;-89
2021/10/28 17:57:49;;;;;;;168.27;56.47;;;;;;;7.18;59.39;101422.59;1450444;88;21447;-88
2021/10/28 18:00:24;;;;;;;186.53;62.53;;;;;;;7.12;59.35;101426.47;1451971;89;21363;-88
2021/10/28 18:02:52;;;;;;;197.00;69.10;;;;;;;7.06;59.46;101416.36;1441064;88;21570;-88
2021/10/28 18:05:21;;;;;;;209.90;70.67;;;;;;;6.99;59.58;101416.36;1431108;91;21538;-87
2021/10/28 18:07:49;;;;;;;204.20;67.87;;;;;;;6.96;59.81;101419.20;1443378;87;22345;-88
2021/10/28 18:10:18;;;;;;;203.70;68.30;;;;;;;6.89;59.86;101415.30;1463110;89;21464;-89
2021/10/28 18:12:46;;;;;;;186.67;68.93;;;;;;;6.83;60.51;101429.69;1447850;88;21429;-89
2021/10/28 18:15:13;;;;;;;186.30;69.57;;;;;;;6.72;61.08;101411.95;1423704;91;21418;-90
2021/10/28 18:17:41;;;;;;;201.00;67.83;;;;;;;6.64;61.71;101421.28;1429081;90;23201;-89
2021/10/28 18:20:08;;;;;;;179.13;65.37;;;;;;;6.56;62.24;101419.16;1431146;91;22226;-89
2021/10/28 18:22:43;;;;;;;174.47;64.87;;;;;;;6.43;63.32;101419.55;1423048;91;22178;-90
2021/10/28 18:25:14;;;;;;;186.33;77.70;;;;;;;6.31;63.47;101418.06;1431694;91;22859;-89
2021/10/28 18:27:41;;;;;;;204.73;73.63;;;;;;;6.25;63.14;101418.45;1436122;89;22231;-89
2021/10/28 18:30:12;;;;;;;234.47;87.47;;;;;;;6.24;62.66;101415.45;1426311;91;22063;-90
2021/10/28 18:32:41;;;;;;;;;;;;;;;6.28;62.38;101416.94;1517395;91;22865;-89
2021/10/28 18:35:13;;;;;;;197.43;78.30;;;;;;;6.29;63.87;101412.05;1433459;91;20453;-89
2021/10/28 18:37:46;;;;;;;188.77;75.03;;;;;;;6.21;64.03;101416.93;1433982;91;22177;-89
2021/10/28 18:40:14;;;;;;;189.23;75.83;;;;;;;6.10;63.71;101416.78;1414085;92;22355;-88
2021/10/28 18:42:42;;;;;;;201.40;82.83;;;;;;;5.80;64.02;101408.46;1434982;91;22072;-89
2021/10/28 18:45:12;;;;;;;196.30;84.53;;;;;;;5.80;64.02;101408.46;1430290;91;22118;-89
2021/10/28 18:47:40;;;;;;;433.60;182.07;;;;;;;5.81;64.96;101415.42;1437952;91;22042;-89
2021/10/28 18:50:08;;;;;;;222.93;93.43;;;;;;;5.84;64.23;101410.42;1440167;91;22042;-89
2021/10/28 18:52:36;;;;;;;195.47;84.63;;;;;;;5.90;64.27;101416.66;1433777;90;22320;-88
2021/10/28 18:55:05;;;;;;;214.97;90.40;;;;;;;5.90;64.27;101416.66;1430877;91;23210;-89
2021/10/28 18:57:38;;;;;;;224.33;99.23;;;;;;;5.86;64.35;101421.22;1468782;88;21878;-89
2021/10/28 19:00:09;;;;;;;193.23;82.57;;;;;;;5.70;65.22;101416.54;1466909;88;22031;-89
2021/10/28 19:02:38;;;;;;;153.82;69.75;;;;;;;5.70;65.22;101416.54;1538147;88;21924;-91
2021/10/28 19:05:07;;;;;;;147.23;72.57;;;;;;;5.59;65.46;101427.67;1472598;88;21354;-90
2021/10/28 19:07:38;;;;;;;161.27;71.93;;;;;;;5.49;64.89;101417.80;1469109;88;24078;-90
2021/10/28 19:10:07;;;;;;;148.43;72.27;;;;;;;5.48;64.61;101424.00;1471804;88;21899;-90
2021/10/28 19:12:34;;;;;;;159.00;73.33;;;;;;;5.51;64.39;101422.03;1418540;88;21333;-91
2021/10/28 19:15:04;;;;;;;147.37;73.87;;;;;;;5.40;64.83;101416.09;1444098;88;21953;-89
2021/10/28 19:17:32;;;;;;;172.87;76.83;;;;;;;5.34;66.06;101425.64;1558924;88;21779;-89
2021/10/28 19:20:00;;;;;;;173.83;82.73;;;;;;;5.34;66.06;101425.64;1559279;88;21697;-89
2021/10/28 19:22:31;;;;;;;194.87;92.77;;;;;;;5.04;67.90;101424.33;1397648;88;21718;-89
2021/10/28 19:25:01;;;;;;;188.07;85.77;;;;;;;4.98;66.99;101426.84;1526206;88;21772;-91
2021/10/28 19:27:28;;;;;;;215.50;96.53;;;;;;;4.98;66.99;101426.84;1505425;88;21755;-89
2021/10/28 19:30:25;;;;;;;408.43;184.47;;;;;;;4.94;67.61;101425.30;1475138;88;21738;-89
2021/10/28 19:32:28;;;;;;;441.63;208.30;;;;;;;4.86;68.70;101427.54;1464340;88;21979;-90
2021/10/28 19:34:58;;;;;;;358.63;169.80;;;;;;;4.77;69.01;101418.84;1450994;88;21749;-89
2021/10/28 19:37:38;;;;;;;337.10;144.67;;;;;;;4.66;69.46;101422.53;1452267;89;21737;-89
2021/10/28 19:40:23;;;;;;;247.03;111.63;;;;;;;4.59;69.03;101429.06;1449303;90;21776;-89
2021/10/28 19:47:57;;;;;;;266.70;111.77;;;;;;;4.34;69.91;101429.55;1443312;90;22235;-89
2021/10/28 19:50:26;;;;;;;424.70;164.73;;;;;;;4.28;69.73;101426.32;1448019;89;21560;-89
2021/10/28 19:52:54;;;;;;;183.80;73.87;;;;;;;4.21;70.29;101427.59;1445111;88;21619;-89
2021/10/28 19:55:21;;;;;;;140.97;66.00;;;;;;;4.15;69.65;101427.09;1452435;89;21527;-90
2021/10/28 19:57:52;;;;;;;156.10;66.83;;;;;;;4.09;69.38;101426.95;1452328;89;21895;-90
2021/10/28 20:00:35;;;;;;;355.23;156.23;;;;;;;4.07;69.37;101436.19;1445701;89;21660;-89
2021/10/28 20:05:42;;;;;;;146.00;65.27;;;;;;;3.96;70.02;101428.05;1450782;89;20489;-91
2021/10/28 20:08:14;;;;;;;130.63;60.10;;;;;;;3.91;69.24;101430.05;1449272;89;22555;-87
2021/10/28 20:13:53;;;;;;;135.50;63.80;;;;;;;3.78;68.85;101435.56;1527450;89;21415;-87
2021/10/28 20:21:35;;;;;;;158.30;76.77;;;;;;;3.74;69.83;101424.84;1452130;90;21886;-89